sensor_id;sensor_type;location;lat;lon;timestamp;P1;durP1;ratioP1;P2;durP2;ratioP2
66601;SDS011;53459;51.828;7.872;2022-11-15T00:01:55;13.10;;;7.13;;
66601;SDS011;53459;51.828;7.872;2022-11-15T00:04:21;13.40;;;6.97;;
66601;SDS011;53459;51.828;7.872;2022-11-15T00:06:46;13.73;;;7.20;;
66601;SDS011;53459;51.828;7.872;2022-11-15T00:09:12;13.47;;;6.90;;
66601;SDS011;53459;51.828;7.872;2022-11-15T00:11:37;12.37;;;6.93;;
66601;SDS011;53459;51.828;7.872;2022-11-15T00:14:02;14.43;;;7.37;;
66601;SDS011;53459;51.828;7.872;2022-11-15T00:16:28;13.13;;;6.82;;
66601;SDS011;53459;51.828;7.872;2022-11-15T00:18:53;13.57;;;7.20;;
66601;SDS011;53459;51.828;7.872;2022-11-15T00:21:19;13.67;;;7.13;;
66601;SDS011;53459;51.828;7.872;2022-11-15T00:23:44;14.87;;;7.37;;
66601;SDS011;53459;51.828;7.872;2022-11-15T00:26:13;15.30;;;7.70;;
66601;SDS011;53459;51.828;7.872;2022-11-15T00:28:38;13.70;;;7.10;;
66601;SDS011;53459;51.828;7.872;2022-11-15T00:31:05;13.73;;;6.93;;
66601;SDS011;53459;51.828;7.872;2022-11-15T00:33:31;13.30;;;7.40;;
66601;SDS011;53459;51.828;7.872;2022-11-15T00:36:03;14.10;;;7.33;;
66601;SDS011;53459;51.828;7.872;2022-11-15T00:38:33;13.60;;;7.03;;
66601;SDS011;53459;51.828;7.872;2022-11-15T00:40:58;15.63;;;7.30;;
66601;SDS011;53459;51.828;7.872;2022-11-15T00:43:24;14.57;;;7.10;;
66601;SDS011;53459;51.828;7.872;2022-11-15T00:45:49;16.90;;;7.70;;
66601;SDS011;53459;51.828;7.872;2022-11-15T00:48:14;14.67;;;7.23;;
66601;SDS011;53459;51.828;7.872;2022-11-15T00:50:40;12.45;;;6.63;;
66601;SDS011;53459;51.828;7.872;2022-11-15T00:53:05;16.63;;;7.53;;
66601;SDS011;53459;51.828;7.872;2022-11-15T00:55:31;14.47;;;7.13;;
66601;SDS011;53459;51.828;7.872;2022-11-15T00:57:56;14.07;;;7.27;;
66601;SDS011;53459;51.828;7.872;2022-11-15T01:01:42;14.45;;;7.28;;
66601;SDS011;53459;51.828;7.872;2022-11-15T01:04:07;14.40;;;7.10;;
66601;SDS011;53459;51.828;7.872;2022-11-15T01:06:33;13.77;;;7.23;;
66601;SDS011;53459;51.828;7.872;2022-11-15T01:08:58;12.50;;;6.80;;
66601;SDS011;53459;51.828;7.872;2022-11-15T01:11:23;15.73;;;7.23;;
66601;SDS011;53459;51.828;7.872;2022-11-15T01:13:49;13.57;;;6.80;;
66601;SDS011;53459;51.828;7.872;2022-11-15T01:16:15;13.60;;;7.07;;
66601;SDS011;53459;51.828;7.872;2022-11-15T01:18:42;12.95;;;6.80;;
66601;SDS011;53459;51.828;7.872;2022-11-15T01:21:11;14.07;;;6.77;;
66601;SDS011;53459;51.828;7.872;2022-11-15T01:23:37;13.97;;;6.57;;
66601;SDS011;53459;51.828;7.872;2022-11-15T01:26:03;13.02;;;6.57;;
66601;SDS011;53459;51.828;7.872;2022-11-15T01:28:30;12.05;;;6.55;;
66601;SDS011;53459;51.828;7.872;2022-11-15T01:30:57;12.43;;;6.67;;
66601;SDS011;53459;51.828;7.872;2022-11-15T01:33:22;12.27;;;6.30;;
66601;SDS011;53459;51.828;7.872;2022-11-15T01:35:48;12.80;;;6.20;;
66601;SDS011;53459;51.828;7.872;2022-11-15T01:38:13;12.97;;;7.13;;
66601;SDS011;53459;51.828;7.872;2022-11-15T01:40:38;12.40;;;6.88;;
66601;SDS011;53459;51.828;7.872;2022-11-15T01:43:23;12.50;;;6.53;;
66601;SDS011;53459;51.828;7.872;2022-11-15T01:45:56;14.02;;;6.82;;
66601;SDS011;53459;51.828;7.872;2022-11-15T01:48:25;14.13;;;7.18;;
66601;SDS011;53459;51.828;7.872;2022-11-15T01:50:51;14.00;;;7.20;;
66601;SDS011;53459;51.828;7.872;2022-11-15T01:53:17;13.25;;;6.50;;
66601;SDS011;53459;51.828;7.872;2022-11-15T01:55:43;15.20;;;7.45;;
66601;SDS011;53459;51.828;7.872;2022-11-15T01:58:09;14.32;;;7.05;;
66601;SDS011;53459;51.828;7.872;2022-11-15T02:00:34;14.53;;;7.00;;
66601;SDS011;53459;51.828;7.872;2022-11-15T02:03:00;14.47;;;6.93;;
66601;SDS011;53459;51.828;7.872;2022-11-15T02:05:26;12.77;;;6.85;;
66601;SDS011;53459;51.828;7.872;2022-11-15T02:07:51;13.70;;;6.60;;
66601;SDS011;53459;51.828;7.872;2022-11-15T02:10:18;13.40;;;6.50;;
66601;SDS011;53459;51.828;7.872;2022-11-15T02:12:44;15.05;;;7.05;;
66601;SDS011;53459;51.828;7.872;2022-11-15T02:15:10;14.45;;;6.53;;
66601;SDS011;53459;51.828;7.872;2022-11-15T02:17:57;12.65;;;6.97;;
66601;SDS011;53459;51.828;7.872;2022-11-15T02:20:41;13.13;;;6.60;;
66601;SDS011;53459;51.828;7.872;2022-11-15T02:28:48;14.80;;;6.85;;
66601;SDS011;53459;51.828;7.872;2022-11-15T02:36:40;12.80;;;6.60;;
66601;SDS011;53459;51.828;7.872;2022-11-15T02:39:15;14.20;;;6.65;;
66601;SDS011;53459;51.828;7.872;2022-11-15T02:46:56;14.40;;;6.60;;
66601;SDS011;53459;51.828;7.872;2022-11-15T02:49:39;11.50;;;6.50;;
66601;SDS011;53459;51.828;7.872;2022-11-15T02:52:34;14.38;;;6.43;;
66601;SDS011;53459;51.828;7.872;2022-11-15T02:55:44;15.07;;;6.97;;
66601;SDS011;53459;51.828;7.872;2022-11-15T02:58:32;12.40;;;6.28;;
66601;SDS011;53459;51.828;7.872;2022-11-15T03:07:11;13.23;;;6.20;;
66601;SDS011;53459;51.828;7.872;2022-11-15T03:09:40;13.53;;;6.80;;
66601;SDS011;53459;51.828;7.872;2022-11-15T03:15:10;13.50;;;6.63;;
66601;SDS011;53459;51.828;7.872;2022-11-15T03:17:39;12.13;;;6.05;;
66601;SDS011;53459;51.828;7.872;2022-11-15T03:21:59;14.63;;;6.22;;
66601;SDS011;53459;51.828;7.872;2022-11-15T03:24:25;12.32;;;5.82;;
66601;SDS011;53459;51.828;7.872;2022-11-15T03:26:52;12.15;;;6.30;;
66601;SDS011;53459;51.828;7.872;2022-11-15T03:29:22;14.25;;;6.80;;
66601;SDS011;53459;51.828;7.872;2022-11-15T03:31:51;11.48;;;5.95;;
66601;SDS011;53459;51.828;7.872;2022-11-15T03:34:41;11.70;;;6.07;;
66601;SDS011;53459;51.828;7.872;2022-11-15T03:39:48;14.60;;;6.60;;
66601;SDS011;53459;51.828;7.872;2022-11-15T03:47:21;13.40;;;6.88;;
66601;SDS011;53459;51.828;7.872;2022-11-15T03:49:50;14.25;;;6.60;;
66601;SDS011;53459;51.828;7.872;2022-11-15T03:52:18;12.82;;;6.03;;
66601;SDS011;53459;51.828;7.872;2022-11-15T03:55:18;13.00;;;6.70;;
66601;SDS011;53459;51.828;7.872;2022-11-15T03:57:44;16.65;;;6.32;;
66601;SDS011;53459;51.828;7.872;2022-11-15T04:00:10;16.60;;;6.90;;
66601;SDS011;53459;51.828;7.872;2022-11-15T04:02:35;14.23;;;6.63;;
66601;SDS011;53459;51.828;7.872;2022-11-15T04:05:00;13.73;;;6.60;;
66601;SDS011;53459;51.828;7.872;2022-11-15T04:07:26;14.37;;;7.00;;
66601;SDS011;53459;51.828;7.872;2022-11-15T04:09:51;14.47;;;6.97;;
66601;SDS011;53459;51.828;7.872;2022-11-15T04:12:29;13.07;;;6.70;;
66601;SDS011;53459;51.828;7.872;2022-11-15T04:15:08;15.20;;;6.60;;
66601;SDS011;53459;51.828;7.872;2022-11-15T04:17:46;13.55;;;7.20;;
66601;SDS011;53459;51.828;7.872;2022-11-15T04:20:16;16.20;;;7.05;;
66601;SDS011;53459;51.828;7.872;2022-11-15T04:23:13;13.52;;;6.68;;
66601;SDS011;53459;51.828;7.872;2022-11-15T04:25:58;15.30;;;7.10;;
66601;SDS011;53459;51.828;7.872;2022-11-15T04:28:24;14.00;;;6.65;;
66601;SDS011;53459;51.828;7.872;2022-11-15T04:30:49;13.93;;;6.73;;
66601;SDS011;53459;51.828;7.872;2022-11-15T04:33:14;12.53;;;6.80;;
66601;SDS011;53459;51.828;7.872;2022-11-15T04:35:40;11.90;;;6.30;;
66601;SDS011;53459;51.828;7.872;2022-11-15T04:38:07;12.57;;;6.47;;
66601;SDS011;53459;51.828;7.872;2022-11-15T04:40:33;12.60;;;7.07;;
66601;SDS011;53459;51.828;7.872;2022-11-15T04:42:59;13.07;;;6.80;;
66601;SDS011;53459;51.828;7.872;2022-11-15T04:45:24;12.97;;;6.90;;
66601;SDS011;53459;51.828;7.872;2022-11-15T04:47:49;11.77;;;6.03;;
66601;SDS011;53459;51.828;7.872;2022-11-15T04:50:15;13.77;;;7.47;;
66601;SDS011;53459;51.828;7.872;2022-11-15T04:54:51;13.13;;;6.60;;
66601;SDS011;53459;51.828;7.872;2022-11-15T04:57:16;13.30;;;7.00;;
66601;SDS011;53459;51.828;7.872;2022-11-15T04:59:41;11.57;;;6.63;;
66601;SDS011;53459;51.828;7.872;2022-11-15T05:02:07;14.17;;;6.80;;
66601;SDS011;53459;51.828;7.872;2022-11-15T05:04:32;16.30;;;6.87;;
66601;SDS011;53459;51.828;7.872;2022-11-15T05:06:57;15.97;;;7.33;;
66601;SDS011;53459;51.828;7.872;2022-11-15T05:09:23;14.17;;;6.90;;
66601;SDS011;53459;51.828;7.872;2022-11-15T05:23:00;13.50;;;6.45;;
66601;SDS011;53459;51.828;7.872;2022-11-15T05:25:26;12.83;;;5.80;;
66601;SDS011;53459;51.828;7.872;2022-11-15T05:28:21;11.52;;;5.97;;
66601;SDS011;53459;51.828;7.872;2022-11-15T05:30:47;11.37;;;6.07;;
66601;SDS011;53459;51.828;7.872;2022-11-15T05:33:12;12.27;;;6.23;;
66601;SDS011;53459;51.828;7.872;2022-11-15T05:35:41;11.97;;;5.80;;
66601;SDS011;53459;51.828;7.872;2022-11-15T05:38:07;13.00;;;6.55;;
66601;SDS011;53459;51.828;7.872;2022-11-15T05:40:32;12.20;;;6.00;;
66601;SDS011;53459;51.828;7.872;2022-11-15T05:42:59;11.00;;;5.72;;
66601;SDS011;53459;51.828;7.872;2022-11-15T05:45:25;12.43;;;5.90;;
66601;SDS011;53459;51.828;7.872;2022-11-15T05:47:50;11.47;;;6.17;;
66601;SDS011;53459;51.828;7.872;2022-11-15T05:50:16;11.48;;;6.00;;
66601;SDS011;53459;51.828;7.872;2022-11-15T05:52:58;11.23;;;5.75;;
66601;SDS011;53459;51.828;7.872;2022-11-15T05:55:23;12.18;;;6.53;;
66601;SDS011;53459;51.828;7.872;2022-11-15T05:57:49;13.90;;;6.50;;
66601;SDS011;53459;51.828;7.872;2022-11-15T06:00:14;11.73;;;5.67;;
66601;SDS011;53459;51.828;7.872;2022-11-15T06:02:40;11.73;;;6.37;;
66601;SDS011;53459;51.828;7.872;2022-11-15T06:05:05;12.37;;;6.53;;
66601;SDS011;53459;51.828;7.872;2022-11-15T06:09:41;13.02;;;6.95;;
66601;SDS011;53459;51.828;7.872;2022-11-15T06:12:07;12.03;;;6.80;;
66601;SDS011;53459;51.828;7.872;2022-11-15T06:14:32;13.02;;;6.55;;
66601;SDS011;53459;51.828;7.872;2022-11-15T06:16:57;11.90;;;6.47;;
66601;SDS011;53459;51.828;7.872;2022-11-15T06:19:23;12.63;;;6.80;;
66601;SDS011;53459;51.828;7.872;2022-11-15T06:21:48;11.27;;;6.37;;
66601;SDS011;53459;51.828;7.872;2022-11-15T06:24:13;10.73;;;5.90;;
66601;SDS011;53459;51.828;7.872;2022-11-15T06:26:39;12.25;;;6.40;;
66601;SDS011;53459;51.828;7.872;2022-11-15T06:29:04;11.00;;;6.07;;
66601;SDS011;53459;51.828;7.872;2022-11-15T06:31:30;9.77;;;5.57;;
66601;SDS011;53459;51.828;7.872;2022-11-15T06:33:56;10.18;;;5.57;;
66601;SDS011;53459;51.828;7.872;2022-11-15T06:36:21;12.13;;;5.63;;
66601;SDS011;53459;51.828;7.872;2022-11-15T06:38:47;12.03;;;5.77;;
66601;SDS011;53459;51.828;7.872;2022-11-15T06:41:12;11.30;;;5.75;;
66601;SDS011;53459;51.828;7.872;2022-11-15T06:43:39;12.77;;;6.27;;
66601;SDS011;53459;51.828;7.872;2022-11-15T06:46:05;10.30;;;5.40;;
66601;SDS011;53459;51.828;7.872;2022-11-15T06:48:31;10.55;;;5.60;;
66601;SDS011;53459;51.828;7.872;2022-11-15T06:50:57;11.02;;;5.85;;
66601;SDS011;53459;51.828;7.872;2022-11-15T06:53:23;9.80;;;4.95;;
66601;SDS011;53459;51.828;7.872;2022-11-15T06:55:48;10.40;;;5.20;;
66601;SDS011;53459;51.828;7.872;2022-11-15T06:58:14;10.93;;;5.23;;
66601;SDS011;53459;51.828;7.872;2022-11-15T07:00:39;9.97;;;5.03;;
66601;SDS011;53459;51.828;7.872;2022-11-15T07:03:30;10.30;;;4.85;;
66601;SDS011;53459;51.828;7.872;2022-11-15T07:05:56;10.07;;;4.80;;
66601;SDS011;53459;51.828;7.872;2022-11-15T07:08:22;8.52;;;4.47;;
66601;SDS011;53459;51.828;7.872;2022-11-15T07:10:47;22.92;;;5.00;;
66601;SDS011;53459;51.828;7.872;2022-11-15T07:13:13;8.73;;;4.50;;
66601;SDS011;53459;51.828;7.872;2022-11-15T07:15:39;9.03;;;4.40;;
66601;SDS011;53459;51.828;7.872;2022-11-15T07:18:04;8.63;;;4.40;;
66601;SDS011;53459;51.828;7.872;2022-11-15T07:20:29;8.10;;;4.13;;
66601;SDS011;53459;51.828;7.872;2022-11-15T07:23:00;9.27;;;4.30;;
66601;SDS011;53459;51.828;7.872;2022-11-15T07:25:26;9.07;;;4.15;;
66601;SDS011;53459;51.828;7.872;2022-11-15T07:27:57;10.30;;;4.17;;
66601;SDS011;53459;51.828;7.872;2022-11-15T07:30:23;7.90;;;3.72;;
66601;SDS011;53459;51.828;7.872;2022-11-15T07:32:53;8.80;;;3.90;;
66601;SDS011;53459;51.828;7.872;2022-11-15T07:35:18;7.60;;;3.80;;
66601;SDS011;53459;51.828;7.872;2022-11-15T07:37:44;7.63;;;3.53;;
66601;SDS011;53459;51.828;7.872;2022-11-15T07:40:09;8.13;;;3.90;;
66601;SDS011;53459;51.828;7.872;2022-11-15T07:42:35;7.82;;;3.85;;
66601;SDS011;53459;51.828;7.872;2022-11-15T07:45:22;8.32;;;3.63;;
66601;SDS011;53459;51.828;7.872;2022-11-15T07:50:04;8.27;;;3.70;;
66601;SDS011;53459;51.828;7.872;2022-11-15T07:52:29;9.38;;;3.65;;
66601;SDS011;53459;51.828;7.872;2022-11-15T07:54:55;7.40;;;3.60;;
66601;SDS011;53459;51.828;7.872;2022-11-15T07:57:20;7.77;;;3.30;;
66601;SDS011;53459;51.828;7.872;2022-11-15T07:59:46;9.33;;;3.77;;
66601;SDS011;53459;51.828;7.872;2022-11-15T08:02:11;7.57;;;3.50;;
66601;SDS011;53459;51.828;7.872;2022-11-15T08:04:37;7.60;;;3.17;;
66601;SDS011;53459;51.828;7.872;2022-11-15T08:07:02;7.40;;;3.00;;
66601;SDS011;53459;51.828;7.872;2022-11-15T08:09:27;7.17;;;2.60;;
66601;SDS011;53459;51.828;7.872;2022-11-15T08:11:53;7.45;;;3.13;;
66601;SDS011;53459;51.828;7.872;2022-11-15T08:14:18;7.73;;;3.10;;
66601;SDS011;53459;51.828;7.872;2022-11-15T08:16:46;6.33;;;2.90;;
66601;SDS011;53459;51.828;7.872;2022-11-15T08:19:12;8.07;;;2.92;;
66601;SDS011;53459;51.828;7.872;2022-11-15T08:21:37;6.20;;;2.60;;
66601;SDS011;53459;51.828;7.872;2022-11-15T08:24:02;6.70;;;2.80;;
66601;SDS011;53459;51.828;7.872;2022-11-15T08:26:28;5.83;;;2.70;;
66601;SDS011;53459;51.828;7.872;2022-11-15T08:28:55;6.15;;;2.50;;
66601;SDS011;53459;51.828;7.872;2022-11-15T08:31:20;6.27;;;2.37;;
66601;SDS011;53459;51.828;7.872;2022-11-15T08:33:46;6.03;;;2.63;;
66601;SDS011;53459;51.828;7.872;2022-11-15T08:36:12;6.27;;;2.40;;
66601;SDS011;53459;51.828;7.872;2022-11-15T08:38:38;5.70;;;2.10;;
66601;SDS011;53459;51.828;7.872;2022-11-15T08:41:04;4.90;;;1.80;;
66601;SDS011;53459;51.828;7.872;2022-11-15T08:43:29;5.20;;;1.90;;
66601;SDS011;53459;51.828;7.872;2022-11-15T08:45:55;3.53;;;1.23;;
66601;SDS011;53459;51.828;7.872;2022-11-15T08:48:21;4.93;;;1.88;;
66601;SDS011;53459;51.828;7.872;2022-11-15T08:50:46;5.07;;;1.73;;
66601;SDS011;53459;51.828;7.872;2022-11-15T08:53:12;5.10;;;1.77;;
66601;SDS011;53459;51.828;7.872;2022-11-15T08:55:38;5.45;;;1.77;;
66601;SDS011;53459;51.828;7.872;2022-11-15T08:58:03;5.73;;;1.77;;
66601;SDS011;53459;51.828;7.872;2022-11-15T09:00:29;4.85;;;1.70;;
66601;SDS011;53459;51.828;7.872;2022-11-15T09:02:55;4.63;;;1.50;;
66601;SDS011;53459;51.828;7.872;2022-11-15T09:05:20;4.45;;;1.38;;
66601;SDS011;53459;51.828;7.872;2022-11-15T09:07:45;5.50;;;1.57;;
66601;SDS011;53459;51.828;7.872;2022-11-15T09:10:11;5.03;;;1.50;;
66601;SDS011;53459;51.828;7.872;2022-11-15T09:14:17;3.72;;;1.20;;
66601;SDS011;53459;51.828;7.872;2022-11-15T09:16:43;4.50;;;1.23;;
66601;SDS011;53459;51.828;7.872;2022-11-15T09:19:08;5.78;;;1.70;;
66601;SDS011;53459;51.828;7.872;2022-11-15T09:21:33;4.40;;;1.40;;
66601;SDS011;53459;51.828;7.872;2022-11-15T09:23:59;5.03;;;1.13;;
66601;SDS011;53459;51.828;7.872;2022-11-15T09:26:24;3.93;;;1.17;;
66601;SDS011;53459;51.828;7.872;2022-11-15T09:28:50;4.68;;;1.10;;
66601;SDS011;53459;51.828;7.872;2022-11-15T09:31:15;4.70;;;1.40;;
66601;SDS011;53459;51.828;7.872;2022-11-15T09:33:44;4.17;;;1.37;;
66601;SDS011;53459;51.828;7.872;2022-11-15T09:36:10;5.07;;;1.30;;
66601;SDS011;53459;51.828;7.872;2022-11-15T09:51:08;4.20;;;1.20;;
66601;SDS011;53459;51.828;7.872;2022-11-15T09:53:37;4.80;;;1.27;;
66601;SDS011;53459;51.828;7.872;2022-11-15T09:56:26;5.07;;;1.20;;
66601;SDS011;53459;51.828;7.872;2022-11-15T09:58:56;3.75;;;1.10;;
66601;SDS011;53459;51.828;7.872;2022-11-15T10:01:36;3.40;;;1.10;;
66601;SDS011;53459;51.828;7.872;2022-11-15T10:04:04;4.75;;;1.10;;
66601;SDS011;53459;51.828;7.872;2022-11-15T10:06:29;4.05;;;1.20;;
66601;SDS011;53459;51.828;7.872;2022-11-15T10:11:37;4.23;;;1.10;;
66601;SDS011;53459;51.828;7.872;2022-11-15T10:14:04;5.00;;;1.10;;
66601;SDS011;53459;51.828;7.872;2022-11-15T10:17:39;3.72;;;1.00;;
66601;SDS011;53459;51.828;7.872;2022-11-15T10:19:47;6.10;;;1.17;;
66601;SDS011;53459;51.828;7.872;2022-11-15T10:24:42;4.00;;;1.03;;
66601;SDS011;53459;51.828;7.872;2022-11-15T10:27:13;3.63;;;1.20;;
66601;SDS011;53459;51.828;7.872;2022-11-15T10:29:45;4.07;;;1.00;;
66601;SDS011;53459;51.828;7.872;2022-11-15T10:32:12;3.97;;;1.10;;
66601;SDS011;53459;51.828;7.872;2022-11-15T10:34:38;3.37;;;0.90;;
66601;SDS011;53459;51.828;7.872;2022-11-15T10:37:03;4.63;;;0.93;;
66601;SDS011;53459;51.828;7.872;2022-11-15T10:39:29;3.80;;;0.80;;
66601;SDS011;53459;51.828;7.872;2022-11-15T10:41:54;4.07;;;0.80;;
66601;SDS011;53459;51.828;7.872;2022-11-15T10:44:21;3.67;;;0.83;;
66601;SDS011;53459;51.828;7.872;2022-11-15T10:46:48;4.40;;;0.90;;
66601;SDS011;53459;51.828;7.872;2022-11-15T10:49:29;4.10;;;0.87;;
66601;SDS011;53459;51.828;7.872;2022-11-15T10:56:54;4.28;;;0.88;;
66601;SDS011;53459;51.828;7.872;2022-11-15T10:59:38;2.40;;;0.70;;
66601;SDS011;53459;51.828;7.872;2022-11-15T11:02:22;3.15;;;0.80;;
66601;SDS011;53459;51.828;7.872;2022-11-15T11:04:50;4.90;;;0.80;;
66601;SDS011;53459;51.828;7.872;2022-11-15T11:07:22;4.30;;;1.17;;
66601;SDS011;53459;51.828;7.872;2022-11-15T11:09:49;3.28;;;0.90;;
66601;SDS011;53459;51.828;7.872;2022-11-15T11:12:26;3.47;;;0.90;;
66601;SDS011;53459;51.828;7.872;2022-11-15T11:14:52;4.40;;;1.00;;
66601;SDS011;53459;51.828;7.872;2022-11-15T11:22:26;2.78;;;0.90;;
66601;SDS011;53459;51.828;7.872;2022-11-15T11:25:04;3.80;;;1.10;;
66601;SDS011;53459;51.828;7.872;2022-11-15T11:27:47;5.60;;;0.90;;
66601;SDS011;53459;51.828;7.872;2022-11-15T11:30:23;4.30;;;1.10;;
66601;SDS011;53459;51.828;7.872;2022-11-15T11:35:29;3.40;;;1.00;;
66601;SDS011;53459;51.828;7.872;2022-11-15T11:40:32;3.97;;;1.10;;
66601;SDS011;53459;51.828;7.872;2022-11-15T11:48:12;3.40;;;0.80;;
66601;SDS011;53459;51.828;7.872;2022-11-15T11:50:39;4.47;;;1.00;;
66601;SDS011;53459;51.828;7.872;2022-11-15T11:53:11;4.95;;;1.00;;
66601;SDS011;53459;51.828;7.872;2022-11-15T11:55:45;3.90;;;1.10;;
66601;SDS011;53459;51.828;7.872;2022-11-15T12:01:07;3.23;;;1.00;;
66601;SDS011;53459;51.828;7.872;2022-11-15T12:04:29;4.05;;;1.00;;
66601;SDS011;53459;51.828;7.872;2022-11-15T12:07:51;3.15;;;0.90;;
66601;SDS011;53459;51.828;7.872;2022-11-15T12:10:26;4.53;;;0.90;;
66601;SDS011;53459;51.828;7.872;2022-11-15T12:13:15;3.30;;;0.88;;
66601;SDS011;53459;51.828;7.872;2022-11-15T12:15:59;4.80;;;1.00;;
66601;SDS011;53459;51.828;7.872;2022-11-15T12:18:27;4.15;;;1.13;;
66601;SDS011;53459;51.828;7.872;2022-11-15T12:21:04;3.60;;;1.10;;
66601;SDS011;53459;51.828;7.872;2022-11-15T12:26:52;4.43;;;1.08;;
66601;SDS011;53459;51.828;7.872;2022-11-15T12:29:22;4.10;;;1.10;;
66601;SDS011;53459;51.828;7.872;2022-11-15T12:31:52;3.90;;;1.00;;
66601;SDS011;53459;51.828;7.872;2022-11-15T12:36:46;4.18;;;1.15;;
66601;SDS011;53459;51.828;7.872;2022-11-15T12:39:12;4.27;;;1.10;;
66601;SDS011;53459;51.828;7.872;2022-11-15T12:41:38;3.35;;;1.00;;
66601;SDS011;53459;51.828;7.872;2022-11-15T13:04:43;4.90;;;1.20;;
66601;SDS011;53459;51.828;7.872;2022-11-15T13:07:08;4.93;;;1.33;;
66601;SDS011;53459;51.828;7.872;2022-11-15T13:09:54;4.20;;;1.30;;
66601;SDS011;53459;51.828;7.872;2022-11-15T13:14:54;5.95;;;1.50;;
66601;SDS011;53459;51.828;7.872;2022-11-15T13:17:23;4.13;;;1.20;;
66601;SDS011;53459;51.828;7.872;2022-11-15T13:19:59;5.50;;;1.20;;
66601;SDS011;53459;51.828;7.872;2022-11-15T13:22:26;4.10;;;1.10;;
66601;SDS011;53459;51.828;7.872;2022-11-15T13:27:54;4.28;;;1.10;;
66601;SDS011;53459;51.828;7.872;2022-11-15T13:30:26;3.17;;;0.90;;
66601;SDS011;53459;51.828;7.872;2022-11-15T13:32:52;4.23;;;1.30;;
66601;SDS011;53459;51.828;7.872;2022-11-15T13:35:20;4.50;;;1.00;;
66601;SDS011;53459;51.828;7.872;2022-11-15T13:37:45;4.20;;;1.08;;
66601;SDS011;53459;51.828;7.872;2022-11-15T13:42:42;4.63;;;1.10;;
66601;SDS011;53459;51.828;7.872;2022-11-15T13:45:11;4.37;;;1.20;;
66601;SDS011;53459;51.828;7.872;2022-11-15T13:47:37;3.13;;;1.10;;
66601;SDS011;53459;51.828;7.872;2022-11-15T13:50:03;3.47;;;1.10;;
66601;SDS011;53459;51.828;7.872;2022-11-15T13:52:31;3.57;;;1.10;;
66601;SDS011;53459;51.828;7.872;2022-11-15T13:55:04;4.70;;;1.10;;
66601;SDS011;53459;51.828;7.872;2022-11-15T13:57:47;3.70;;;1.05;;
66601;SDS011;53459;51.828;7.872;2022-11-15T14:00:33;4.90;;;1.08;;
66601;SDS011;53459;51.828;7.872;2022-11-15T14:03:34;5.03;;;1.00;;
66601;SDS011;53459;51.828;7.872;2022-11-15T14:06:13;3.97;;;0.95;;
66601;SDS011;53459;51.828;7.872;2022-11-15T14:09:02;4.60;;;0.90;;
66601;SDS011;53459;51.828;7.872;2022-11-15T14:11:25;4.15;;;1.00;;
66601;SDS011;53459;51.828;7.872;2022-11-15T14:16:39;3.92;;;1.00;;
66601;SDS011;53459;51.828;7.872;2022-11-15T14:19:05;3.33;;;0.80;;
66601;SDS011;53459;51.828;7.872;2022-11-15T14:21:31;4.00;;;1.08;;
66601;SDS011;53459;51.828;7.872;2022-11-15T14:24:16;3.53;;;0.90;;
66601;SDS011;53459;51.828;7.872;2022-11-15T14:26:42;2.97;;;0.80;;
66601;SDS011;53459;51.828;7.872;2022-11-15T14:32:12;4.90;;;0.93;;
66601;SDS011;53459;51.828;7.872;2022-11-15T14:34:37;3.97;;;0.90;;
66601;SDS011;53459;51.828;7.872;2022-11-15T14:37:03;3.70;;;0.87;;
66601;SDS011;53459;51.828;7.872;2022-11-15T14:39:28;5.45;;;0.90;;
66601;SDS011;53459;51.828;7.872;2022-11-15T14:41:54;4.73;;;1.00;;
66601;SDS011;53459;51.828;7.872;2022-11-15T14:44:19;4.30;;;0.90;;
66601;SDS011;53459;51.828;7.872;2022-11-15T14:46:46;4.07;;;0.90;;
66601;SDS011;53459;51.828;7.872;2022-11-15T14:49:13;4.80;;;1.00;;
66601;SDS011;53459;51.828;7.872;2022-11-15T14:51:40;4.53;;;1.08;;
66601;SDS011;53459;51.828;7.872;2022-11-15T14:54:07;4.07;;;1.10;;
66601;SDS011;53459;51.828;7.872;2022-11-15T14:56:33;4.60;;;1.17;;
66601;SDS011;53459;51.828;7.872;2022-11-15T14:58:58;6.30;;;1.10;;
66601;SDS011;53459;51.828;7.872;2022-11-15T15:01:25;4.73;;;1.33;;
66601;SDS011;53459;51.828;7.872;2022-11-15T15:03:51;6.07;;;1.70;;
66601;SDS011;53459;51.828;7.872;2022-11-15T15:06:21;6.20;;;1.20;;
66601;SDS011;53459;51.828;7.872;2022-11-15T15:08:47;4.97;;;1.10;;
66601;SDS011;53459;51.828;7.872;2022-11-15T15:11:14;4.53;;;1.20;;
66601;SDS011;53459;51.828;7.872;2022-11-15T15:13:40;4.38;;;1.10;;
66601;SDS011;53459;51.828;7.872;2022-11-15T15:16:05;4.63;;;1.00;;
66601;SDS011;53459;51.828;7.872;2022-11-15T15:18:32;5.18;;;0.90;;
66601;SDS011;53459;51.828;7.872;2022-11-15T15:20:58;4.95;;;1.10;;
66601;SDS011;53459;51.828;7.872;2022-11-15T15:23:32;4.05;;;0.93;;
66601;SDS011;53459;51.828;7.872;2022-11-15T15:25:58;5.18;;;0.90;;
66601;SDS011;53459;51.828;7.872;2022-11-15T15:28:24;6.77;;;1.17;;
66601;SDS011;53459;51.828;7.872;2022-11-15T15:30:49;3.73;;;1.00;;
66601;SDS011;53459;51.828;7.872;2022-11-15T15:33:15;4.73;;;1.20;;
66601;SDS011;53459;51.828;7.872;2022-11-15T15:35:40;4.55;;;1.30;;
66601;SDS011;53459;51.828;7.872;2022-11-15T15:38:06;4.67;;;1.40;;
66601;SDS011;53459;51.828;7.872;2022-11-15T15:40:31;5.55;;;1.50;;
66601;SDS011;53459;51.828;7.872;2022-11-15T15:42:57;4.63;;;1.40;;
66601;SDS011;53459;51.828;7.872;2022-11-15T15:45:24;4.80;;;1.40;;
66601;SDS011;53459;51.828;7.872;2022-11-15T15:47:50;5.18;;;1.50;;
66601;SDS011;53459;51.828;7.872;2022-11-15T15:50:27;5.70;;;1.90;;
66601;SDS011;53459;51.828;7.872;2022-11-15T15:52:57;4.43;;;1.30;;
66601;SDS011;53459;51.828;7.872;2022-11-15T15:57:02;7.55;;;1.50;;
66601;SDS011;53459;51.828;7.872;2022-11-15T15:59:28;6.67;;;1.70;;
66601;SDS011;53459;51.828;7.872;2022-11-15T16:01:53;20.70;;;9.80;;
66601;SDS011;53459;51.828;7.872;2022-11-15T16:04:19;7.47;;;3.40;;
66601;SDS011;53459;51.828;7.872;2022-11-15T16:06:45;7.30;;;2.70;;
66601;SDS011;53459;51.828;7.872;2022-11-15T16:09:29;5.63;;;1.85;;
66601;SDS011;53459;51.828;7.872;2022-11-15T16:12:13;7.50;;;3.10;;
66601;SDS011;53459;51.828;7.872;2022-11-15T16:14:39;6.88;;;2.40;;
66601;SDS011;53459;51.828;7.872;2022-11-15T16:17:04;8.43;;;1.87;;
66601;SDS011;53459;51.828;7.872;2022-11-15T16:19:30;4.97;;;1.53;;
66601;SDS011;53459;51.828;7.872;2022-11-15T16:21:56;4.85;;;1.40;;
66601;SDS011;53459;51.828;7.872;2022-11-15T16:24:22;5.73;;;1.77;;
66601;SDS011;53459;51.828;7.872;2022-11-15T16:26:47;5.95;;;2.08;;
66601;SDS011;53459;51.828;7.872;2022-11-15T16:29:13;10.48;;;6.85;;
66601;SDS011;53459;51.828;7.872;2022-11-15T16:31:40;7.70;;;2.20;;
66601;SDS011;53459;51.828;7.872;2022-11-15T16:34:05;7.30;;;2.13;;
66601;SDS011;53459;51.828;7.872;2022-11-15T16:36:34;8.73;;;3.08;;
66601;SDS011;53459;51.828;7.872;2022-11-15T16:39:00;5.57;;;1.80;;
66601;SDS011;53459;51.828;7.872;2022-11-15T16:41:29;6.72;;;2.00;;
66601;SDS011;53459;51.828;7.872;2022-11-15T16:43:55;7.93;;;2.67;;
66601;SDS011;53459;51.828;7.872;2022-11-15T16:46:23;8.10;;;2.10;;
66601;SDS011;53459;51.828;7.872;2022-11-15T16:48:49;6.70;;;1.70;;
66601;SDS011;53459;51.828;7.872;2022-11-15T16:51:16;7.40;;;1.90;;
66601;SDS011;53459;51.828;7.872;2022-11-15T16:53:41;7.80;;;1.90;;
66601;SDS011;53459;51.828;7.872;2022-11-15T16:56:26;8.37;;;2.13;;
66601;SDS011;53459;51.828;7.872;2022-11-15T16:58:52;6.35;;;2.00;;
66601;SDS011;53459;51.828;7.872;2022-11-15T17:01:21;5.05;;;1.70;;
66601;SDS011;53459;51.828;7.872;2022-11-15T17:03:47;5.70;;;1.70;;
66601;SDS011;53459;51.828;7.872;2022-11-15T17:06:13;5.93;;;1.80;;
66601;SDS011;53459;51.828;7.872;2022-11-15T17:08:39;6.47;;;1.83;;
66601;SDS011;53459;51.828;7.872;2022-11-15T17:11:05;5.27;;;1.80;;
66601;SDS011;53459;51.828;7.872;2022-11-15T17:13:30;6.85;;;2.85;;